createdAt,value
2023-02-22T00:00:36.743Z,10.00
2023-02-22T00:01:19.374Z,12.45
2023-02-22T00:01:51.647Z,12.05
2023-02-22T00:02:29.171Z,12.68
2023-02-22T00:03:00.843Z,11.18
2023-02-22T00:03:32.618Z,11.20
2023-02-22T00:04:06.713Z,11.77
2023-02-22T00:04:41.684Z,9.00
2023-02-22T00:05:16.743Z,10.80
2023-02-22T00:05:48.381Z,9.63
2023-02-22T00:06:25.156Z,9.13
2023-02-22T00:07:01.277Z,10.98
2023-02-22T00:07:33.807Z,10.15
2023-02-22T00:08:09.415Z,11.02
2023-02-22T00:08:42.065Z,10.50
2023-02-22T00:09:20.406Z,13.60
2023-02-22T00:09:52.129Z,10.38
2023-02-22T00:10:24.919Z,10.05
2023-02-22T00:10:57.767Z,10.90
2023-02-22T00:11:31.665Z,11.88
2023-02-22T00:12:03.532Z,11.25
2023-02-22T00:12:35.134Z,11.07
2023-02-22T00:13:09.241Z,12.60
2023-02-22T00:13:44.206Z,10.82
2023-02-22T00:14:15.970Z,12.30
2023-02-22T00:14:47.689Z,12.25
2023-02-22T00:15:22.579Z,11.00
2023-02-22T00:15:54.196Z,13.18
2023-02-22T00:16:26.824Z,13.35
2023-02-22T00:16:59.849Z,11.52
2023-02-22T00:17:31.582Z,15.40
2023-02-22T00:18:04.610Z,13.82
2023-02-22T00:18:37.890Z,14.40
2023-02-22T00:19:10.715Z,14.50
2023-02-22T00:19:42.325Z,14.80
2023-02-22T00:20:18.433Z,14.27
2023-02-22T00:20:50.691Z,12.82
2023-02-22T00:21:22.543Z,11.75
2023-02-22T00:21:54.385Z,13.57
2023-02-22T00:22:26.089Z,12.50
2023-02-22T00:22:57.816Z,14.98
2023-02-22T00:23:31.139Z,11.93
2023-02-22T00:24:17.185Z,12.20
2023-02-22T00:24:50.296Z,12.00
2023-02-22T00:25:24.705Z,12.65
2023-02-22T00:25:58.118Z,12.80
2023-02-22T00:26:33.384Z,12.80
2023-02-22T00:27:05.016Z,13.75
2023-02-22T00:27:37.094Z,14.98
2023-02-22T00:28:08.681Z,13.50
2023-02-22T00:28:42.501Z,12.05
2023-02-22T00:29:14.172Z,14.25
2023-02-22T00:29:46.885Z,13.63
2023-02-22T00:30:27.982Z,13.15
2023-02-22T00:31:00.110Z,13.75
2023-02-22T00:31:31.918Z,15.15
2023-02-22T00:32:03.799Z,14.43
2023-02-22T00:32:35.968Z,13.52
2023-02-22T00:33:07.629Z,14.18
2023-02-22T00:33:40.281Z,12.45
2023-02-22T00:34:14.600Z,14.73
2023-02-22T00:34:46.211Z,12.85
2023-02-22T00:35:20.356Z,10.98
2023-02-22T00:35:52.272Z,12.60
2023-02-22T00:36:23.855Z,13.43
2023-02-22T00:36:55.604Z,13.65
2023-02-22T00:37:31.656Z,11.38
2023-02-22T00:38:04.016Z,11.65
2023-02-22T00:38:35.695Z,10.50
2023-02-22T00:39:07.824Z,10.75
2023-02-22T00:39:39.568Z,11.25
2023-02-22T00:40:15.081Z,12.18
2023-02-22T00:40:46.913Z,12.20
2023-02-22T00:41:18.962Z,12.13
2023-02-22T00:41:50.856Z,12.65
2023-02-22T00:42:22.461Z,12.95
2023-02-22T00:42:54.191Z,11.48
2023-02-22T00:43:26.477Z,11.90
2023-02-22T00:43:58.084Z,12.68
2023-02-22T00:44:29.717Z,12.27
2023-02-22T00:45:01.413Z,11.57
2023-02-22T00:45:36.324Z,13.73
2023-02-22T00:46:07.978Z,11.27
2023-02-22T00:46:39.649Z,14.88
2023-02-22T00:47:11.357Z,13.70
2023-02-22T00:47:43.269Z,11.52
2023-02-22T00:48:15.113Z,11.70
2023-02-22T00:48:46.777Z,10.38
2023-02-22T00:49:19.102Z,13.77
2023-02-22T00:49:50.849Z,12.50
2023-02-22T00:50:24.915Z,12.32
2023-02-22T00:50:56.705Z,11.02
2023-02-22T00:51:28.889Z,12.90
2023-02-22T00:52:00.962Z,12.18
2023-02-22T00:52:32.610Z,11.30
2023-02-22T00:53:05.657Z,13.23
2023-02-22T00:53:37.309Z,12.57
2023-02-22T00:54:09.491Z,12.00
2023-02-22T00:54:41.227Z,13.07
2023-02-22T00:55:24.429Z,11.52
2023-02-22T00:55:56.061Z,12.05
2023-02-22T00:56:27.915Z,13.18
2023-02-22T00:56:59.606Z,14.05
2023-02-22T00:57:31.287Z,13.60
2023-02-22T00:58:04.682Z,11.80
2023-02-22T00:58:36.310Z,14.93
2023-02-22T00:59:08.026Z,10.77
2023-02-22T00:59:39.656Z,11.88
2023-02-22T01:00:36.631Z,12.75
2023-02-22T01:01:08.229Z,12.07
2023-02-22T01:01:39.942Z,13.20
2023-02-22T01:02:11.718Z,13.43
2023-02-22T01:02:43.703Z,12.98
2023-02-22T01:03:18.908Z,12.95
2023-02-22T01:03:50.673Z,13.27
2023-02-22T01:04:23.620Z,17.33
2023-02-22T01:04:56.625Z,15.23
2023-02-22T01:05:30.071Z,16.83
2023-02-22T01:06:02.430Z,19.23
2023-02-22T01:06:34.269Z,18.73
2023-02-22T01:07:06.293Z,19.33
2023-02-22T01:07:38.540Z,20.50
2023-02-22T01:08:12.998Z,23.10
2023-02-22T01:08:48.505Z,19.55
2023-02-22T01:09:21.657Z,17.67
2023-02-22T01:09:53.800Z,14.48
2023-02-22T01:10:28.061Z,14.50
2023-02-22T01:11:00.024Z,11.95
2023-02-22T01:11:31.731Z,13.38
2023-02-22T01:12:03.520Z,13.00
2023-02-22T01:12:36.388Z,13.10
2023-02-22T01:13:09.680Z,13.07
2023-02-22T01:13:41.427Z,15.40
2023-02-22T01:14:13.121Z,13.38
2023-02-22T01:14:44.733Z,13.88
2023-02-22T01:15:21.905Z,11.60
2023-02-22T01:15:53.612Z,13.80
2023-02-22T01:16:25.457Z,12.10
2023-02-22T01:16:57.273Z,11.13
2023-02-22T01:17:28.939Z,13.02
2023-02-22T01:18:00.958Z,12.55
2023-02-22T01:18:32.640Z,11.23
2023-02-22T01:19:06.299Z,11.95
2023-02-22T01:19:37.911Z,11.82
2023-02-22T01:20:12.870Z,13.77
2023-02-22T01:20:48.175Z,10.85
2023-02-22T01:21:20.038Z,12.15
2023-02-22T01:21:51.675Z,13.25
2023-02-22T01:22:23.950Z,11.63
2023-02-22T01:22:58.315Z,13.05
2023-02-22T01:23:30.236Z,11.32
2023-02-22T01:24:01.833Z,13.45
2023-02-22T01:24:33.431Z,11.38
2023-02-22T01:25:07.499Z,11.07
2023-02-22T01:25:39.177Z,11.68
2023-02-22T01:26:10.803Z,12.23
2023-02-22T01:27:02.559Z,10.98
2023-02-22T01:27:35.501Z,10.57
2023-02-22T01:28:08.578Z,10.95
2023-02-22T01:28:40.536Z,10.00
2023-02-22T01:29:16.788Z,11.00
2023-02-22T01:29:50.353Z,10.48
2023-02-22T01:30:25.662Z,11.35
2023-02-22T01:30:58.267Z,11.30
2023-02-22T01:31:29.936Z,11.82
2023-02-22T01:32:01.806Z,10.75
2023-02-22T01:32:33.786Z,10.25
2023-02-22T01:33:07.549Z,11.70
2023-02-22T01:33:40.850Z,11.65
2023-02-22T01:34:13.041Z,13.05
2023-02-22T01:34:44.650Z,10.77
2023-02-22T01:35:18.820Z,11.73
2023-02-22T01:35:51.416Z,12.30
2023-02-22T01:36:23.042Z,12.80
2023-02-22T01:36:54.702Z,12.00
2023-02-22T01:37:26.333Z,12.68
2023-02-22T01:37:58.853Z,12.90
2023-02-22T01:38:30.825Z,11.00
2023-02-22T01:39:02.482Z,11.38
2023-02-22T01:39:34.121Z,10.32
2023-02-22T01:40:08.328Z,12.50
2023-02-22T01:40:42.818Z,12.13
2023-02-22T01:41:18.422Z,10.55
2023-02-22T01:41:50.371Z,11.88
2023-02-22T01:42:24.144Z,11.05
2023-02-22T01:42:58.849Z,11.95
2023-02-22T01:43:32.505Z,13.32
2023-02-22T01:44:18.010Z,11.65
2023-02-22T01:45:27.831Z,16.73
2023-02-22T01:46:03.843Z,12.00
2023-02-22T01:46:35.579Z,12.15
2023-02-22T01:47:09.144Z,11.52
2023-02-22T01:47:41.018Z,12.45
2023-02-22T01:48:25.017Z,12.60
2023-02-22T01:49:01.605Z,13.27
2023-02-22T01:49:41.409Z,12.90
2023-02-22T01:50:13.115Z,11.43
2023-02-22T01:50:52.833Z,14.30
2023-02-22T01:51:37.975Z,12.70
2023-02-22T01:52:15.497Z,11.40
2023-02-22T01:52:47.275Z,12.73
2023-02-22T01:53:19.314Z,13.55
2023-02-22T01:54:09.537Z,11.60
2023-02-22T01:54:49.421Z,10.63
2023-02-22T01:55:21.071Z,12.73
2023-02-22T01:55:54.359Z,11.32
2023-02-22T01:56:28.612Z,14.68
2023-02-22T01:57:08.429Z,12.50
2023-02-22T01:57:40.152Z,11.65
2023-02-22T01:58:13.061Z,13.52
2023-02-22T01:58:48.710Z,14.57
2023-02-22T01:59:21.615Z,13.55
2023-02-22T01:59:56.827Z,13.10
2023-02-22T02:00:28.520Z,15.05
2023-02-22T02:01:01.247Z,13.73
2023-02-22T02:01:33.552Z,14.82
2023-02-22T02:02:06.231Z,14.25
2023-02-22T02:02:41.628Z,14.50
2023-02-22T02:03:19.394Z,25.05
2023-02-22T02:03:55.000Z,22.02
2023-02-22T02:04:28.044Z,19.23
2023-02-22T02:05:00.146Z,20.52
2023-02-22T02:05:34.469Z,25.02
2023-02-22T02:06:11.972Z,22.10
2023-02-22T02:06:44.375Z,25.05
2023-02-22T02:07:21.171Z,26.63
2023-02-22T02:07:53.538Z,23.33
2023-02-22T02:08:42.592Z,21.35
2023-02-22T02:09:25.618Z,20.23
2023-02-22T02:10:04.509Z,22.48
2023-02-22T02:10:37.196Z,21.10
2023-02-22T02:11:09.885Z,22.08
2023-02-22T02:11:42.612Z,21.13
2023-02-22T02:12:17.198Z,20.10
2023-02-22T02:12:50.665Z,18.27
2023-02-22T02:13:22.812Z,18.67
2023-02-22T02:13:56.796Z,18.85
2023-02-22T02:14:32.967Z,17.88
2023-02-22T02:15:23.231Z,19.10
2023-02-22T02:15:56.589Z,17.10
2023-02-22T02:16:40.274Z,19.33
2023-02-22T02:17:16.619Z,20.55
2023-02-22T02:17:50.102Z,20.85
2023-02-22T02:18:23.438Z,17.67
2023-02-22T02:18:55.182Z,16.08
2023-02-22T02:19:48.529Z,14.90
2023-02-22T02:20:28.179Z,13.30
2023-02-22T02:21:02.644Z,15.85
2023-02-22T02:21:34.193Z,15.38
2023-02-22T02:22:20.659Z,17.60
2023-02-22T02:23:01.911Z,16.73
2023-02-22T02:23:56.049Z,19.08
2023-02-22T02:24:55.488Z,18.48
2023-02-22T02:25:55.731Z,17.50
2023-02-22T02:26:42.486Z,17.20
2023-02-22T02:27:26.937Z,17.88
2023-02-22T02:28:01.223Z,17.83
2023-02-22T02:29:23.629Z,17.35
2023-02-22T02:30:26.181Z,18.52
2023-02-22T02:31:16.841Z,19.25
2023-02-22T02:32:16.610Z,14.82
2023-02-22T02:33:18.556Z,15.93
2023-02-22T02:34:08.600Z,17.83
2023-02-22T02:35:00.406Z,13.43
2023-02-22T02:35:37.097Z,15.52
2023-02-22T02:36:22.782Z,11.63
2023-02-22T02:37:00.324Z,14.27
2023-02-22T02:38:19.359Z,11.63
2023-02-22T02:39:20.898Z,12.68
2023-02-22T02:40:20.942Z,12.75
2023-02-22T02:41:02.724Z,13.65
2023-02-22T02:41:39.843Z,12.85
2023-02-22T02:42:16.732Z,13.82
2023-02-22T02:43:14.030Z,14.23
2023-02-22T02:43:59.941Z,13.77
2023-02-22T02:44:53.158Z,11.57
2023-02-22T02:45:51.543Z,13.23
2023-02-22T02:46:31.853Z,12.60
2023-02-22T02:47:09.494Z,11.50
2023-02-22T02:47:47.062Z,14.20
2023-02-22T02:48:23.559Z,12.23
2023-02-22T02:49:00.598Z,12.82
2023-02-22T02:49:39.862Z,11.55
2023-02-22T02:50:25.973Z,14.50
2023-02-22T02:51:00.097Z,10.55
2023-02-22T02:51:36.684Z,11.13
2023-02-22T02:52:10.689Z,12.73
2023-02-22T02:52:43.147Z,11.85
2023-02-22T02:53:19.600Z,12.25
2023-02-22T02:53:52.537Z,13.80
2023-02-22T02:54:25.117Z,12.88
2023-02-22T02:54:57.359Z,12.65
2023-02-22T02:55:32.900Z,10.93
2023-02-22T02:56:05.004Z,10.85
2023-02-22T02:56:36.716Z,11.85
2023-02-22T02:57:09.535Z,13.75
2023-02-22T02:57:41.207Z,11.52
2023-02-22T02:58:21.750Z,11.63
2023-02-22T02:58:54.493Z,13.00
2023-02-22T02:59:35.115Z,11.77
2023-02-22T03:00:23.630Z,11.65
2023-02-22T03:01:01.109Z,11.98
2023-02-22T03:01:44.483Z,12.15
2023-02-22T03:02:43.661Z,11.65
2023-02-22T03:03:30.277Z,11.20
2023-02-22T03:04:31.248Z,12.13
2023-02-22T03:05:21.258Z,10.85
2023-02-22T03:06:14.749Z,11.13
2023-02-22T03:07:05.917Z,12.05
2023-02-22T03:07:45.054Z,11.60
2023-02-22T03:08:39.580Z,12.23
2023-02-22T03:09:14.017Z,14.55
2023-02-22T03:09:55.135Z,12.63
2023-02-22T03:10:50.455Z,12.77
2023-02-22T03:11:28.724Z,10.52
2023-02-22T03:12:20.023Z,12.25
2023-02-22T03:13:07.169Z,13.48
2023-02-22T03:13:45.236Z,11.98
2023-02-22T03:14:33.348Z,10.93
2023-02-22T03:15:26.010Z,11.07
2023-02-22T03:16:21.774Z,12.00
2023-02-22T03:16:59.927Z,12.82
2023-02-22T03:17:37.057Z,10.48
2023-02-22T03:18:36.502Z,10.00
2023-02-22T03:19:32.531Z,11.13
2023-02-22T03:20:18.802Z,10.60
2023-02-22T03:21:02.028Z,11.20
2023-02-22T03:21:57.305Z,12.93
2023-02-22T03:22:37.947Z,12.30
2023-02-22T03:23:17.138Z,16.15
2023-02-22T03:24:20.165Z,11.57
2023-02-22T03:24:59.055Z,11.63
2023-02-22T03:25:43.357Z,12.63
2023-02-22T03:26:20.391Z,13.60
2023-02-22T03:27:09.548Z,11.40
2023-02-22T03:27:46.536Z,12.23
2023-02-22T03:28:21.598Z,11.43
2023-02-22T03:28:56.040Z,14.25
2023-02-22T03:29:30.249Z,11.95
2023-02-22T03:30:06.788Z,11.77
2023-02-22T03:30:44.864Z,12.48
2023-02-22T03:31:27.472Z,12.13
2023-02-22T03:32:01.620Z,12.40
2023-02-22T03:32:37.756Z,11.63
2023-02-22T03:33:14.550Z,13.52
2023-02-22T03:33:50.950Z,12.10
2023-02-22T03:34:46.066Z,11.93
2023-02-22T03:35:25.847Z,12.70
2023-02-22T03:36:02.912Z,12.63
2023-02-22T03:36:39.198Z,11.32
2023-02-22T03:37:24.464Z,12.85
2023-02-22T03:38:00.544Z,11.52
2023-02-22T03:38:35.948Z,12.40
2023-02-22T03:39:16.158Z,11.80
2023-02-22T03:39:51.139Z,14.52
2023-02-22T03:40:28.960Z,14.82
2023-02-22T03:41:03.056Z,13.98
2023-02-22T03:41:41.393Z,12.48
2023-02-22T03:42:20.073Z,13.27
2023-02-22T03:42:59.280Z,10.98
2023-02-22T03:43:42.728Z,12.48
2023-02-22T03:44:24.711Z,12.00
2023-02-22T03:45:00.057Z,11.73
2023-02-22T03:45:32.380Z,12.57
2023-02-22T03:46:05.269Z,12.38
2023-02-22T03:46:39.695Z,11.60
2023-02-22T03:47:16.364Z,11.82
2023-02-22T03:47:51.626Z,10.98
2023-02-22T03:48:31.468Z,10.52
2023-02-22T03:49:26.072Z,12.23
2023-02-22T03:50:11.147Z,12.40
2023-02-22T03:50:43.147Z,11.52
2023-02-22T03:51:16.999Z,14.23
2023-02-22T03:51:48.873Z,11.38
2023-02-22T03:52:23.548Z,13.20
2023-02-22T03:52:56.158Z,12.85
2023-02-22T03:53:27.773Z,12.18
2023-02-22T03:53:59.537Z,11.85
2023-02-22T03:54:32.272Z,13.90
2023-02-22T03:55:11.189Z,10.73
2023-02-22T03:55:42.937Z,10.95
2023-02-22T03:56:20.931Z,11.98
2023-02-22T03:56:58.406Z,12.10
2023-02-22T03:57:35.273Z,13.25
2023-02-22T03:58:11.604Z,11.52
2023-02-22T03:58:45.509Z,12.98
2023-02-22T03:59:18.009Z,12.20
2023-02-22T03:59:49.990Z,14.05
2023-02-22T04:00:24.888Z,12.10
2023-02-22T04:00:56.615Z,10.88
2023-02-22T04:01:28.562Z,11.95
2023-02-22T04:02:00.226Z,11.65
2023-02-22T04:02:31.794Z,13.90
2023-02-22T04:03:04.312Z,12.98
2023-02-22T04:03:35.954Z,11.98
2023-02-22T04:04:07.893Z,11.50
2023-02-22T04:04:39.769Z,12.00
2023-02-22T04:05:11.827Z,12.20
2023-02-22T04:05:43.499Z,12.48
2023-02-22T04:06:15.161Z,11.63
2023-02-22T04:06:48.064Z,10.65
2023-02-22T04:07:19.864Z,12.20
2023-02-22T04:07:55.731Z,11.20
2023-02-22T04:08:27.373Z,12.70
2023-02-22T04:08:59.082Z,11.45
2023-02-22T04:09:30.745Z,11.43
2023-02-22T04:10:03.348Z,11.63
2023-02-22T04:10:35.799Z,11.77
2023-02-22T04:11:07.479Z,12.75
2023-02-22T04:11:39.207Z,11.32
2023-02-22T04:12:10.811Z,11.70
2023-02-22T04:12:42.379Z,11.77
2023-02-22T04:13:14.798Z,11.57
2023-02-22T04:13:46.445Z,10.73
2023-02-22T04:14:18.148Z,10.90
2023-02-22T04:14:50.118Z,12.32
2023-02-22T04:15:24.122Z,11.52
2023-02-22T04:15:55.772Z,13.52
2023-02-22T04:16:28.046Z,12.43
2023-02-22T04:16:59.931Z,12.43
2023-02-22T04:17:31.548Z,10.00
2023-02-22T04:18:03.163Z,12.07
2023-02-22T04:18:34.862Z,11.98
2023-02-22T04:19:06.450Z,11.43
2023-02-22T04:19:38.079Z,11.35
2023-02-22T04:20:11.750Z,11.57
2023-02-22T04:20:44.780Z,11.98
2023-02-22T04:21:16.669Z,12.38
2023-02-22T04:21:48.508Z,11.63
2023-02-22T04:22:20.213Z,13.82
2023-02-22T04:22:55.760Z,11.75
2023-02-22T04:23:27.560Z,12.45
2023-02-22T04:23:59.947Z,12.13
2023-02-22T04:24:31.685Z,11.80
2023-02-22T04:25:03.402Z,12.40
2023-02-22T04:25:35.061Z,10.70
2023-02-22T04:26:06.637Z,11.85
2023-02-22T04:26:38.264Z,10.63
2023-02-22T04:27:09.867Z,11.80
2023-02-22T04:27:41.602Z,11.55
2023-02-22T04:28:13.292Z,11.73
2023-02-22T04:28:44.961Z,13.60
2023-02-22T04:29:16.637Z,10.85
2023-02-22T04:29:48.266Z,10.77
2023-02-22T04:30:20.543Z,12.35
2023-02-22T04:30:52.290Z,12.13
2023-02-22T04:31:24.110Z,11.68
2023-02-22T04:31:56.062Z,10.77
2023-02-22T04:32:27.708Z,12.73
2023-02-22T04:32:59.401Z,12.88
2023-02-22T04:33:32.533Z,10.40
2023-02-22T04:34:04.294Z,9.85
2023-02-22T04:34:35.945Z,11.80
2023-02-22T04:35:08.112Z,11.05
2023-02-22T04:35:39.727Z,13.75
2023-02-22T04:36:11.378Z,14.02
2023-02-22T04:36:44.676Z,13.75
2023-02-22T04:37:16.378Z,11.98
2023-02-22T04:37:48.028Z,10.57
2023-02-22T04:38:19.697Z,13.30
2023-02-22T04:38:51.291Z,11.38
2023-02-22T04:39:23.032Z,14.75
2023-02-22T04:39:54.834Z,14.07
2023-02-22T04:40:26.607Z,13.65
2023-02-22T04:40:58.364Z,15.07
2023-02-22T04:41:31.577Z,16.23
2023-02-22T04:42:03.347Z,14.70
2023-02-22T04:42:36.893Z,14.32
2023-02-22T04:43:08.766Z,14.18
2023-02-22T04:43:40.369Z,12.40
2023-02-22T04:44:11.985Z,12.90
2023-02-22T04:44:43.770Z,11.95
2023-02-22T04:45:15.546Z,11.70
2023-02-22T04:45:47.232Z,11.88
2023-02-22T04:46:19.951Z,11.30
2023-02-22T04:46:51.631Z,13.02
2023-02-22T04:47:23.359Z,12.40
2023-02-22T04:47:55.048Z,11.35
2023-02-22T04:48:26.662Z,12.07
2023-02-22T04:48:58.290Z,10.23
2023-02-22T04:49:29.904Z,11.43
2023-02-22T04:50:02.024Z,11.68
2023-02-22T04:50:33.760Z,11.48
2023-02-22T04:51:05.634Z,11.57
2023-02-22T04:51:37.230Z,12.52
2023-02-22T04:52:08.942Z,11.85
2023-02-22T04:52:40.798Z,11.43
2023-02-22T04:53:12.530Z,9.65
2023-02-22T04:53:44.535Z,13.55
2023-02-22T04:54:17.643Z,10.50
2023-02-22T04:54:49.218Z,11.13
2023-02-22T04:55:22.506Z,11.60
2023-02-22T04:55:54.171Z,11.52
2023-02-22T04:56:26.031Z,10.85
2023-02-22T04:56:57.805Z,10.50
2023-02-22T04:57:29.375Z,10.20
2023-02-22T04:58:01.040Z,12.50
2023-02-22T04:58:32.669Z,12.32
2023-02-22T04:59:04.394Z,12.27
2023-02-22T04:59:36.098Z,11.10
2023-02-22T05:00:10.593Z,10.50
2023-02-22T05:00:42.267Z,10.15
2023-02-22T05:01:16.654Z,9.90
2023-02-22T05:01:48.506Z,11.50
2023-02-22T05:02:20.311Z,10.63
2023-02-22T05:02:52.072Z,12.02
2023-02-22T05:03:23.720Z,11.82
2023-02-22T05:03:55.590Z,11.52
2023-02-22T05:04:27.299Z,11.07
2023-02-22T05:04:59.020Z,11.82
2023-02-22T05:05:30.918Z,10.95
2023-02-22T05:06:02.507Z,10.18
2023-02-22T05:06:34.595Z,9.90
2023-02-22T05:07:06.188Z,11.00
2023-02-22T05:07:37.825Z,10.55
2023-02-22T05:08:09.640Z,11.95
2023-02-22T05:08:41.226Z,11.65
2023-02-22T05:09:12.824Z,13.35
2023-02-22T05:09:44.518Z,18.30
2023-02-22T05:10:16.417Z,15.13
2023-02-22T05:10:48.024Z,17.05
2023-02-22T05:11:19.582Z,17.00
2023-02-22T05:11:51.530Z,17.02
2023-02-22T05:12:23.151Z,16.25
2023-02-22T05:12:54.728Z,18.80
2023-02-22T05:13:26.734Z,16.45
2023-02-22T05:13:58.336Z,16.75
2023-02-22T05:14:30.036Z,13.82
2023-02-22T05:15:01.789Z,14.25
2023-02-22T05:15:33.440Z,14.75
2023-02-22T05:16:05.520Z,14.27
2023-02-22T05:16:37.208Z,13.93
2023-02-22T05:17:10.375Z,14.95
2023-02-22T05:17:41.994Z,12.57
2023-02-22T05:18:14.726Z,12.20
2023-02-22T05:18:46.308Z,12.45
2023-02-22T05:19:17.922Z,12.90
2023-02-22T05:19:49.754Z,12.23
2023-02-22T05:20:30.342Z,11.95
2023-02-22T05:21:01.962Z,12.57
2023-02-22T05:21:33.691Z,10.05
2023-02-22T05:22:05.810Z,11.75
2023-02-22T05:22:37.383Z,14.85
2023-02-22T05:23:09.667Z,13.75
2023-02-22T05:23:41.749Z,12.60
2023-02-22T05:24:13.512Z,13.40
2023-02-22T05:24:45.166Z,15.63
2023-02-22T05:25:16.872Z,17.45
2023-02-22T05:25:48.561Z,17.63
2023-02-22T05:26:20.166Z,14.10
2023-02-22T05:26:53.390Z,16.42
2023-02-22T05:27:25.071Z,15.43
2023-02-22T05:28:05.446Z,15.82
2023-02-22T05:28:37.066Z,16.98
2023-02-22T05:29:08.708Z,15.55
2023-02-22T05:29:40.664Z,16.20
2023-02-22T05:30:12.776Z,15.60
2023-02-22T05:30:44.565Z,14.07
2023-02-22T05:31:17.705Z,17.05
2023-02-22T05:31:49.618Z,16.38
2023-02-22T05:32:21.526Z,15.43
2023-02-22T05:32:53.526Z,12.82
2023-02-22T05:33:25.293Z,13.77
2023-02-22T05:33:57.946Z,12.77
2023-02-22T05:34:29.574Z,14.18
2023-02-22T05:35:01.259Z,14.13
2023-02-22T05:35:33.362Z,12.73
2023-02-22T05:36:05.643Z,12.60
2023-02-22T05:36:37.357Z,12.20
2023-02-22T05:37:09.666Z,14.10
2023-02-22T05:37:41.250Z,12.48
2023-02-22T05:38:15.106Z,11.18
2023-02-22T05:38:46.827Z,11.23
2023-02-22T05:39:18.422Z,11.23
2023-02-22T05:39:51.097Z,12.15
2023-02-22T05:40:25.285Z,11.93
2023-02-22T05:40:57.055Z,12.65
2023-02-22T05:41:28.745Z,12.18
2023-02-22T05:42:00.385Z,12.10
2023-02-22T05:42:31.987Z,13.15
2023-02-22T05:43:03.735Z,12.90
2023-02-22T05:43:35.322Z,14.07
2023-02-22T05:44:07.091Z,11.77
2023-02-22T05:44:39.062Z,12.07
2023-02-22T05:45:13.947Z,12.15
2023-02-22T05:45:45.661Z,13.35
2023-02-22T05:46:17.252Z,11.90
2023-02-22T05:46:48.932Z,10.98
2023-02-22T05:47:20.701Z,12.73
2023-02-22T05:47:53.014Z,11.77
2023-02-22T05:48:24.656Z,13.35
2023-02-22T05:48:56.300Z,12.20
2023-02-22T05:49:27.918Z,13.50
2023-02-22T05:49:59.723Z,12.90
2023-02-22T05:50:33.226Z,11.93
2023-02-22T05:51:05.120Z,11.63
2023-02-22T05:51:36.826Z,13.75
2023-02-22T05:52:08.468Z,13.93
2023-02-22T05:52:40.570Z,12.98
2023-02-22T05:53:12.146Z,14.05
2023-02-22T05:53:43.709Z,13.18
2023-02-22T05:54:15.340Z,14.50
2023-02-22T05:54:46.968Z,13.07
2023-02-22T05:55:20.817Z,13.60
2023-02-22T05:55:52.620Z,13.65
2023-02-22T05:56:26.495Z,12.57
2023-02-22T05:56:58.203Z,13.43
2023-02-22T05:57:29.821Z,13.13
2023-02-22T05:58:01.872Z,15.85
2023-02-22T05:58:33.694Z,12.93
2023-02-22T05:59:05.403Z,15.68
2023-02-22T05:59:37.102Z,11.88
2023-02-22T06:00:09.884Z,13.20
2023-02-22T06:00:41.632Z,14.75
2023-02-22T06:01:13.293Z,14.35
2023-02-22T06:01:44.910Z,15.93
2023-02-22T06:02:16.751Z,16.75
2023-02-22T06:02:53.138Z,13.93
2023-02-22T06:03:24.737Z,16.02
2023-02-22T06:03:56.378Z,13.95
2023-02-22T06:04:28.161Z,14.65
2023-02-22T06:04:59.827Z,15.90
2023-02-22T06:05:31.662Z,15.68
2023-02-22T06:06:03.372Z,15.95
2023-02-22T06:06:35.073Z,14.68
2023-02-22T06:07:06.656Z,15.35
2023-02-22T06:07:38.287Z,13.55
2023-02-22T06:08:11.343Z,14.65
2023-02-22T06:08:43.214Z,12.90
2023-02-22T06:09:14.989Z,16.85
2023-02-22T06:09:46.624Z,16.23
2023-02-22T06:10:18.752Z,15.50
2023-02-22T06:10:50.515Z,15.70
2023-02-22T06:11:22.205Z,16.20
2023-02-22T06:11:54.569Z,17.63
2023-02-22T06:12:26.265Z,16.77
2023-02-22T06:12:59.517Z,14.60
2023-02-22T06:13:31.261Z,14.70
2023-02-22T06:14:03.124Z,14.23
2023-02-22T06:14:35.214Z,16.25
2023-02-22T06:15:07.321Z,13.55
2023-02-22T06:15:38.922Z,14.70
2023-02-22T06:16:10.705Z,14.73
2023-02-22T06:16:42.280Z,15.73
2023-02-22T06:17:15.508Z,15.18
2023-02-22T06:17:48.195Z,16.05
2023-02-22T06:18:19.880Z,16.58
2023-02-22T06:18:51.460Z,16.67
2023-02-22T06:19:24.071Z,15.27
2023-02-22T06:19:55.976Z,14.52
2023-02-22T06:20:29.558Z,15.27
2023-02-22T06:21:01.448Z,14.10
2023-02-22T06:21:33.063Z,13.50
2023-02-22T06:22:05.400Z,15.23
2023-02-22T06:22:37.029Z,15.40
2023-02-22T06:23:08.712Z,14.77
2023-02-22T06:23:40.325Z,15.68
2023-02-22T06:24:12.212Z,14.50
2023-02-22T06:24:43.838Z,14.25
2023-02-22T06:25:18.070Z,13.77
2023-02-22T06:25:49.813Z,14.75
2023-02-22T06:26:22.988Z,13.68
2023-02-22T06:26:59.300Z,13.65
2023-02-22T06:27:32.430Z,16.85
2023-02-22T06:28:04.783Z,15.18
2023-02-22T06:28:36.838Z,13.18
2023-02-22T06:29:08.886Z,13.82
2023-02-22T06:29:45.877Z,14.43
2023-02-22T06:30:19.643Z,14.82
2023-02-22T06:30:51.259Z,14.48
2023-02-22T06:31:23.034Z,13.48
2023-02-22T06:31:55.247Z,15.50
2023-02-22T06:32:27.043Z,13.98
2023-02-22T06:32:58.705Z,13.02
2023-02-22T06:33:30.408Z,13.60
2023-02-22T06:34:02.452Z,14.27
2023-02-22T06:34:34.035Z,14.35
2023-02-22T06:35:05.968Z,13.30
2023-02-22T06:35:37.782Z,13.85
2023-02-22T06:36:09.971Z,14.50
2023-02-22T06:36:42.490Z,13.15
2023-02-22T06:37:14.400Z,13.38
2023-02-22T06:37:46.016Z,13.98
2023-02-22T06:38:24.937Z,13.88
2023-02-22T06:38:57.178Z,13.73
2023-02-22T06:39:28.868Z,14.10
2023-02-22T06:40:04.842Z,14.35
2023-02-22T06:40:37.162Z,17.23
2023-02-22T06:41:09.156Z,17.10
2023-02-22T06:41:41.515Z,14.32
2023-02-22T06:42:13.236Z,14.18
2023-02-22T06:42:48.388Z,14.75
2023-02-22T06:43:20.106Z,15.80
2023-02-22T06:43:51.678Z,14.43
2023-02-22T06:44:23.531Z,14.65
2023-02-22T06:44:55.113Z,15.63
2023-02-22T06:45:26.853Z,15.68
2023-02-22T06:45:58.508Z,15.38
2023-02-22T06:46:30.167Z,14.70
2023-02-22T06:47:02.102Z,14.98
2023-02-22T06:47:34.153Z,14.30
2023-02-22T06:48:05.969Z,13.38
2023-02-22T06:48:39.451Z,17.80
2023-02-22T06:49:13.675Z,15.07
2023-02-22T06:49:45.527Z,13.82
2023-02-22T06:50:24.953Z,16.38
2023-02-22T06:50:56.599Z,14.20
2023-02-22T06:51:29.202Z,14.68
2023-02-22T06:52:01.017Z,14.48
2023-02-22T06:52:32.701Z,13.57
2023-02-22T06:53:04.442Z,14.70
2023-02-22T06:53:36.141Z,15.45
2023-02-22T06:54:07.807Z,15.65
2023-02-22T06:54:39.728Z,13.38
2023-02-22T06:55:11.350Z,18.75
2023-02-22T06:55:42.942Z,15.35
2023-02-22T06:56:14.594Z,15.00
2023-02-22T06:56:46.250Z,16.15
2023-02-22T06:57:18.376Z,15.40
2023-02-22T06:57:50.106Z,15.35
2023-02-22T06:58:21.798Z,18.38
2023-02-22T06:58:53.368Z,17.20
2023-02-22T06:59:25.043Z,16.38
2023-02-22T06:59:57.474Z,14.65
2023-02-22T07:00:30.543Z,14.80
2023-02-22T07:01:03.921Z,15.40
2023-02-22T07:01:36.100Z,18.73
2023-02-22T07:02:07.955Z,16.08
2023-02-22T07:02:39.815Z,18.00
2023-02-22T07:03:11.680Z,13.68
2023-02-22T07:03:43.487Z,14.75
2023-02-22T07:04:16.014Z,15.13
2023-02-22T07:04:47.648Z,16.65
2023-02-22T07:05:21.221Z,17.75
2023-02-22T07:05:52.846Z,14.88
2023-02-22T07:06:24.403Z,15.35
2023-02-22T07:06:56.418Z,16.70
2023-02-22T07:07:28.046Z,13.32
2023-02-22T07:08:07.749Z,14.85
2023-02-22T07:08:39.340Z,14.07
2023-02-22T07:09:10.916Z,15.85
2023-02-22T07:09:47.184Z,15.80
2023-02-22T07:10:20.898Z,17.30
2023-02-22T07:10:53.183Z,15.57
2023-02-22T07:11:24.845Z,19.45
2023-02-22T07:11:56.624Z,13.73
2023-02-22T07:12:28.254Z,16.08
2023-02-22T07:13:00.625Z,14.90
2023-02-22T07:13:32.255Z,13.32
2023-02-22T07:14:03.967Z,13.52
2023-02-22T07:14:35.586Z,12.88
2023-02-22T07:15:07.489Z,15.65
2023-02-22T07:15:39.234Z,13.88
2023-02-22T07:16:10.929Z,16.00
2023-02-22T07:16:42.624Z,18.50
2023-02-22T07:17:14.210Z,15.77
2023-02-22T07:17:45.865Z,15.13
2023-02-22T07:18:17.465Z,15.20
2023-02-22T07:18:49.148Z,14.68
2023-02-22T07:19:20.835Z,14.88
2023-02-22T07:19:52.409Z,13.73
2023-02-22T07:20:25.593Z,13.90
2023-02-22T07:20:58.645Z,14.25
2023-02-22T07:21:30.974Z,14.82
2023-02-22T07:22:02.562Z,13.63
2023-02-22T07:22:34.171Z,13.65
2023-02-22T07:23:06.242Z,13.82
2023-02-22T07:23:38.537Z,16.08
2023-02-22T07:24:10.172Z,14.60
2023-02-22T07:24:41.737Z,16.08
2023-02-22T07:25:13.602Z,13.88
2023-02-22T07:25:45.276Z,13.68
2023-02-22T07:26:16.870Z,15.07